Time;durP1;ratioP1;P1;durP2;ratioP2;P2;SDS_P1;SDS_P2;PMS_P1;PMS_P2;Temp;Humidity;BMP_temperature;BMP_pressure;BME280_temperature;BME280_humidity;BME280_pressure;Samples;Min_cycle;Max_cycle;Signal;HPM_P1;HPM_P2
2021/08/30 00:00:42;;;;;;;67.57;42.00;;;16.20;99.90;;;;;;5009689;28;20030;-54
2021/08/30 00:03:07;;;;;;;65.57;39.35;;;16.20;99.90;;;;;;5009762;28;20028;-53
2021/08/30 00:05:33;;;;;;;68.57;41.83;;;16.20;99.90;;;;;;5007404;28;20057;-55
2021/08/30 00:07:59;;;;;;;63.90;40.22;;;16.20;99.90;;;;;;5006951;28;20101;-55
2021/08/30 00:10:25;;;;;;;73.88;45.22;;;16.20;99.90;;;;;;5011352;28;20160;-55
2021/08/30 00:12:52;;;;;;;68.82;42.38;;;16.20;99.90;;;;;;5010106;28;20022;-56
2021/08/30 00:15:18;;;;;;;68.13;42.05;;;16.20;99.90;;;;;;5008194;28;20065;-54
2021/08/30 00:17:45;;;;;;;76.60;43.95;;;16.20;99.90;;;;;;5013929;28;20471;-56
2021/08/30 00:20:15;;;;;;;77.18;42.65;;;16.20;99.90;;;;;;5004646;28;20359;-58
2021/08/30 00:22:42;;;;;;;71.00;42.22;;;16.20;99.90;;;;;;5004719;28;20830;-54
2021/08/30 00:25:08;;;;;;;75.72;43.83;;;16.20;99.90;;;;;;5007479;28;20030;-56
2021/08/30 00:27:34;;;;;;;71.75;44.70;;;16.20;99.90;;;;;;5009111;28;20106;-54
2021/08/30 00:29:59;;;;;;;64.63;41.03;;;16.20;99.90;;;;;;5008144;28;20469;-60
2021/08/30 00:32:25;;;;;;;77.55;44.00;;;16.20;99.90;;;;;;5010188;28;20371;-57
2021/08/30 00:34:51;;;;;;;76.28;41.95;;;16.20;99.90;;;;;;5006553;28;20402;-53
2021/08/30 00:37:16;;;;;;;67.63;42.92;;;16.20;99.90;;;;;;5008539;28;20512;-54
2021/08/30 00:39:42;;;;;;;76.78;44.10;;;16.20;99.90;;;;;;5011976;28;20522;-57
2021/08/30 00:42:09;;;;;;;69.22;43.58;;;16.20;99.90;;;;;;5010017;28;20038;-54
2021/08/30 00:44:34;;;;;;;75.55;43.50;;;16.20;99.90;;;;;;5008082;28;20026;-55
2021/08/30 00:47:01;;;;;;;74.85;43.53;;;16.20;99.90;;;;;;5009403;28;20037;-55
2021/08/30 00:49:26;;;;;;;74.70;45.42;;;16.20;99.90;;;;;;5008715;28;20058;-59
2021/08/30 00:51:52;;;;;;;69.10;42.15;;;16.20;99.90;;;;;;5009049;28;20037;-54
2021/08/30 00:54:21;;;;;;;71.32;42.50;;;16.20;99.90;;;;;;5008438;28;20022;-58
2021/08/30 00:56:47;;;;;;;64.72;40.10;;;16.20;99.90;;;;;;5008660;28;20520;-58
2021/08/30 00:59:13;;;;;;;70.95;43.25;;;16.30;99.90;;;;;;5009911;28;20026;-58
2021/08/30 01:01:39;;;;;;;65.25;39.95;;;16.30;99.90;;;;;;5007888;28;20040;-59
2021/08/30 01:04:11;;;;;;;66.93;41.20;;;16.30;99.90;;;;;;5005861;28;20026;-57
2021/08/30 01:07:00;;;;;;;63.20;38.92;;;16.30;99.90;;;;;;5007972;28;20512;-56
2021/08/30 01:09:53;;;;;;;71.82;40.03;;;16.30;99.90;;;;;;5011781;28;20037;-59
2021/08/30 01:12:30;;;;;;;70.47;40.78;;;16.30;99.90;;;;;;5001858;28;20021;-59
2021/08/30 01:15:09;;;;;;;67.75;40.20;;;16.30;99.90;;;;;;5008784;28;20105;-61
2021/08/30 01:17:36;;;;;;;72.50;41.17;;;16.30;99.90;;;;;;5007969;28;20117;-54
2021/08/30 01:20:22;;;;;;;72.50;40.58;;;16.30;99.90;;;;;;5008767;28;20033;-58
2021/08/30 01:22:49;;;;;;;73.47;42.70;;;16.30;99.90;;;;;;5007942;28;20063;-61
2021/08/30 01:25:20;;;;;;;69.38;42.38;;;16.30;99.90;;;;;;5002253;28;20100;-58
2021/08/30 01:27:48;;;;;;;75.95;42.88;;;16.30;99.90;;;;;;5002210;28;20409;-58
2021/08/30 01:30:17;;;;;;;75.18;40.90;;;16.30;99.90;;;;;;5009359;28;20036;-55
2021/08/30 01:32:50;;;;;;;74.85;43.42;;;16.30;99.90;;;;;;5015164;28;20030;-56
2021/08/30 01:35:20;;;;;;;68.70;40.17;;;16.30;99.90;;;;;;5007246;28;20041;-56
2021/08/30 01:37:48;;;;;;;73.80;42.22;;;16.30;99.90;;;;;;5007410;28;20453;-57
2021/08/30 01:40:17;;;;;;;74.35;41.15;;;16.30;99.90;;;;;;5012287;28;20490;-56
2021/08/30 01:42:47;;;;;;;74.57;44.05;;;16.30;99.90;;;;;;5009289;28;20041;-54
2021/08/30 01:45:16;;;;;;;76.18;42.42;;;16.30;99.90;;;;;;5008664;28;20029;-56
2021/08/30 01:47:43;;;;;;;74.18;41.97;;;16.30;99.90;;;;;;5008367;28;20014;-52
2021/08/30 01:50:10;;;;;;;72.22;40.97;;;16.30;99.90;;;;;;5008526;28;20034;-55
2021/08/30 01:52:39;;;;;;;73.65;43.15;;;16.30;99.90;;;;;;5008823;28;20069;-58
2021/08/30 02:00:42;;;;;;;73.40;43.72;;;16.30;99.90;;;;;;5002622;28;20026;-57
2021/08/30 02:00:52;;;;;;;79.03;46.63;;;16.30;99.90;;;;;;5005720;28;20044;-55
2021/08/30 02:03:24;;;;;;;71.63;41.88;;;16.40;99.90;;;;;;5008143;28;20057;-58
2021/08/30 02:05:51;;;;;;;75.53;44.42;;;16.40;99.90;;;;;;5005513;28;20026;-59
2021/08/30 02:08:19;;;;;;;78.43;46.72;;;16.40;99.90;;;;;;5011255;28;20040;-57
2021/08/30 02:10:47;;;;;;;78.72;46.20;;;16.40;99.90;;;;;;5011207;28;20510;-59
2021/08/30 02:13:13;;;;;;;84.28;48.20;;;16.30;99.90;;;;;;5007105;28;20042;-58
2021/08/30 02:15:40;;;;;;;86.43;46.47;;;16.30;99.90;;;;;;5009398;28;20444;-60
2021/08/30 02:18:41;;;;;;;85.93;48.78;;;16.30;99.90;;;;;;5008263;28;20105;-60
2021/08/30 02:21:43;;;;;;;75.35;45.47;;;16.30;99.90;;;;;;5005299;28;20087;-58
2021/08/30 02:24:13;;;;;;;79.47;48.33;;;16.30;99.90;;;;;;4997331;28;20117;-56
2021/08/30 02:26:45;;;;;;;84.07;46.95;;;16.30;99.90;;;;;;5005086;28;20026;-59
2021/08/30 02:29:15;;;;;;;82.85;46.63;;;16.30;99.90;;;;;;5001825;28;20498;-58
2021/08/30 02:31:46;;;;;;;80.05;47.20;;;16.30;99.90;;;;;;5006868;28;20038;-58
2021/08/30 02:34:12;;;;;;;84.63;47.78;;;16.30;99.90;;;;;;5010445;28;20116;-58
2021/08/30 02:36:38;;;;;;;85.03;48.28;;;16.30;99.90;;;;;;5007749;28;20232;-58
2021/08/30 02:39:05;;;;;;;83.20;47.63;;;16.30;99.90;;;;;;5018276;28;20057;-59
2021/08/30 02:41:31;;;;;;;83.32;46.92;;;16.30;99.90;;;;;;5013457;28;20522;-56
2021/08/30 02:43:57;;;;;;;89.97;48.03;;;16.30;99.90;;;;;;5013309;28;20069;-58
2021/08/30 02:46:23;;;;;;;92.18;51.67;;;16.30;99.90;;;;;;5011350;28;20057;-59
2021/08/30 02:48:51;;;;;;;80.35;47.33;;;16.20;99.90;;;;;;5014043;28;20026;-59
2021/08/30 02:51:17;;;;;;;83.40;49.67;;;16.20;99.90;;;;;;5010599;28;20052;-61
2021/08/30 02:53:44;;;;;;;84.80;47.47;;;16.20;99.90;;;;;;5015970;28;20124;-60
2021/08/30 02:56:10;;;;;;;92.30;47.38;;;16.20;99.90;;;;;;5010327;28;20022;-58
2021/08/30 02:58:36;;;;;;;76.85;47.30;;;16.20;99.90;;;;;;5012790;28;20324;-59
2021/08/30 03:01:02;;;;;;;93.13;49.58;;;16.30;99.90;;;;;;5012783;28;20543;-58
2021/08/30 03:03:28;;;;;;;81.22;47.95;;;16.20;99.90;;;;;;5013293;28;20452;-59
2021/08/30 03:05:55;;;;;;;84.35;48.35;;;16.20;99.90;;;;;;5009820;28;20064;-57
2021/08/30 03:08:21;;;;;;;82.97;48.15;;;16.20;99.90;;;;;;5014273;28;21198;-58
2021/08/30 03:10:47;;;;;;;89.60;50.67;;;16.20;99.90;;;;;;5016748;28;20045;-59
2021/08/30 03:13:14;;;;;;;87.35;49.50;;;16.20;99.90;;;;;;5012451;28;20493;-58
2021/08/30 03:15:44;;;;;;;81.13;48.83;;;16.20;99.90;;;;;;5012111;28;20115;-58
2021/08/30 03:18:12;;;;;;;80.88;50.40;;;16.30;99.90;;;;;;5012351;28;20029;-54
2021/08/30 03:20:39;;;;;;;89.10;50.47;;;16.20;99.90;;;;;;5011605;28;20053;-59
2021/08/30 03:23:05;;;;;;;84.65;49.95;;;16.20;99.90;;;;;;5012949;28;20427;-54
2021/08/30 03:25:34;;;;;;;84.30;49.47;;;16.20;99.90;;;;;;5029294;23;20038;-60
2021/08/30 03:28:03;;;;;;;84.95;50.38;;;16.20;99.90;;;;;;5010828;28;20405;-60
2021/08/30 03:30:29;;;;;;;78.85;48.47;;;16.10;99.90;;;;;;5012460;28;20033;-61
2021/08/30 03:32:56;;;;;;;86.57;49.05;;;16.20;99.90;;;;;;4999448;28;20058;-61
2021/08/30 03:35:22;;;;;;;81.72;48.72;;;16.20;99.90;;;;;;5013203;28;20068;-61
2021/08/30 03:37:48;;;;;;;83.15;51.28;;;16.20;99.90;;;;;;5018438;28;20033;-61
2021/08/30 03:40:16;;;;;;;86.90;51.00;;;16.20;99.90;;;;;;5007035;28;20034;-59
2021/08/30 03:42:42;;;;;;;83.38;50.53;;;16.20;99.90;;;;;;5011442;28;20022;-60
2021/08/30 03:45:10;;;;;;;83.15;50.55;;;16.10;99.90;;;;;;5013369;28;20032;-60
2021/08/30 03:47:37;;;;;;;86.93;50.33;;;16.10;99.90;;;;;;5005949;28;20481;-59
2021/08/30 03:50:04;;;;;;;88.22;49.78;;;16.10;99.90;;;;;;5012465;28;20073;-61
2021/08/30 03:52:32;;;;;;;84.25;50.75;;;16.10;99.90;;;;;;5009704;28;20018;-60
2021/08/30 03:54:58;;;;;;;80.05;50.05;;;16.10;99.90;;;;;;5008991;28;20056;-61
2021/08/30 03:57:25;;;;;;;95.25;54.22;;;16.10;99.90;;;;;;5010525;28;20448;-59
2021/08/30 03:59:56;;;;;;;91.18;51.40;;;16.10;99.90;;;;;;5010632;28;20409;-60
2021/08/30 04:02:24;;;;;;;88.63;52.45;;;16.10;99.90;;;;;;5009769;28;20040;-61
2021/08/30 04:04:50;;;;;;;89.30;50.78;;;16.10;99.90;;;;;;5008786;28;20091;-60
2021/08/30 04:07:18;;;;;;;89.30;50.50;;;16.10;99.90;;;;;;5008776;28;20496;-60
2021/08/30 04:09:43;;;;;;;84.05;51.58;;;16.10;99.90;;;;;;5010092;28;20622;-61
2021/08/30 04:12:10;;;;;;;92.05;51.25;;;16.10;99.90;;;;;;5010225;28;20073;-60
2021/08/30 04:14:36;;;;;;;95.35;53.40;;;16.10;99.90;;;;;;5010116;28;20034;-61
2021/08/30 04:17:02;;;;;;;88.80;51.58;;;16.10;99.90;;;;;;5009213;28;20546;-60
2021/08/30 04:19:27;;;;;;;91.30;51.58;;;16.10;99.90;;;;;;5005078;28;20026;-61
2021/08/30 04:21:53;;;;;;;85.55;50.83;;;16.10;99.90;;;;;;5013142;28;20125;-60
2021/08/30 04:24:18;;;;;;;86.68;50.72;;;16.10;99.90;;;;;;5009695;28;20581;-60
2021/08/30 04:26:44;;;;;;;88.22;50.80;;;16.10;99.90;;;;;;5005729;28;20711;-60
2021/08/30 04:29:09;;;;;;;82.82;49.17;;;16.10;99.90;;;;;;5011826;28;20033;-60
2021/08/30 04:31:35;;;;;;;87.45;50.10;;;16.10;99.90;;;;;;5010262;28;20030;-61
2021/08/30 04:34:01;;;;;;;83.72;47.85;;;16.10;99.90;;;;;;5010600;28;20036;-60
2021/08/30 04:36:27;;;;;;;88.22;51.20;;;16.10;99.90;;;;;;5009176;28;20033;-61
2021/08/30 04:38:53;;;;;;;90.72;51.17;;;16.10;99.90;;;;;;5008590;28;20041;-62
2021/08/30 04:41:18;;;;;;;90.35;51.85;;;16.10;99.90;;;;;;5010087;28;20028;-60
2021/08/30 04:43:44;;;;;;;89.38;52.88;;;16.10;99.90;;;;;;5012542;28;20030;-60
2021/08/30 04:46:10;;;;;;;91.15;52.53;;;16.00;99.90;;;;;;5006520;28;20026;-61
2021/08/30 04:48:36;;;;;;;89.85;52.90;;;16.10;99.90;;;;;;5005296;28;20053;-60
2021/08/30 04:51:01;;;;;;;82.03;51.33;;;16.10;99.90;;;;;;5004210;28;20032;-61
2021/08/30 04:53:27;;;;;;;85.63;50.05;;;16.10;99.90;;;;;;5010724;28;20037;-60
2021/08/30 04:55:53;;;;;;;86.82;52.78;;;16.10;99.90;;;;;;5010427;28;20034;-60
2021/08/30 04:58:18;;;;;;;90.47;52.08;;;16.10;99.90;;;;;;5010816;28;20085;-60
2021/08/30 05:00:44;;;;;;;82.80;48.95;;;16.10;99.90;;;;;;5007895;28;20440;-60
2021/08/30 05:03:10;;;;;;;90.97;50.35;;;16.10;99.90;;;;;;5013535;28;20040;-60
2021/08/30 05:05:35;;;;;;;89.68;51.65;;;16.10;99.90;;;;;;5008167;28;20108;-60
2021/08/30 05:08:01;;;;;;;95.97;53.63;;;16.00;99.90;;;;;;5011239;28;20125;-60
2021/08/30 05:10:26;;;;;;;88.22;51.70;;;16.00;99.90;;;;;;5005701;28;20042;-60
2021/08/30 05:12:52;;;;;;;96.63;54.60;;;16.10;99.90;;;;;;4992949;28;20521;-60
2021/08/30 05:15:18;;;;;;;94.97;54.28;;;16.10;99.90;;;;;;5015038;28;20044;-59
2021/08/30 05:17:43;;;;;;;98.45;54.15;;;16.00;99.90;;;;;;5010026;28;20096;-59
2021/08/30 05:20:10;;;;;;;91.30;52.53;;;16.00;99.90;;;;;;5012642;28;20030;-60
2021/08/30 05:22:35;;;;;;;90.13;52.97;;;16.10;99.90;;;;;;4998256;28;20105;-60
2021/08/30 05:25:01;;;;;;;97.95;55.92;;;16.00;99.90;;;;;;4986684;28;20126;-60
2021/08/30 05:27:27;;;;;;;101.38;55.80;;;16.00;99.90;;;;;;5008003;28;20108;-60
2021/08/30 05:29:54;;;;;;;102.43;58.70;;;16.00;99.90;;;;;;5007704;28;20041;-60
2021/08/30 05:32:20;;;;;;;95.88;56.65;;;16.00;99.90;;;;;;5010572;28;20026;-60
2021/08/30 05:34:46;;;;;;;87.45;52.67;;;16.00;99.90;;;;;;5008337;28;20044;-60
2021/08/30 05:37:11;;;;;;;100.30;56.50;;;16.00;99.90;;;;;;5007976;28;20026;-60
2021/08/30 05:39:37;;;;;;;100.50;57.33;;;16.00;99.90;;;;;;5005337;28;20034;-60
2021/08/30 05:42:03;;;;;;;96.80;56.55;;;16.00;99.90;;;;;;5007135;28;20037;-58
2021/08/30 05:44:28;;;;;;;99.05;57.13;;;16.00;99.90;;;;;;5004810;28;20029;-59
2021/08/30 05:46:54;;;;;;;99.97;57.28;;;16.00;99.90;;;;;;5015140;28;20485;-60
2021/08/30 05:49:20;;;;;;;109.53;56.00;;;16.00;99.90;;;;;;5009109;28;20101;-60
2021/08/30 05:51:47;;;;;;;101.13;58.67;;;16.00;99.90;;;;;;5005345;28;20037;-60
2021/08/30 05:54:13;;;;;;;99.72;57.42;;;16.10;99.90;;;;;;5004906;28;20148;-61
2021/08/30 05:56:38;;;;;;;102.60;58.15;;;16.10;99.90;;;;;;5007998;28;20033;-59
2021/08/30 05:59:04;;;;;;;106.97;59.28;;;16.00;99.90;;;;;;5007366;28;20026;-60
2021/08/30 06:01:29;;;;;;;101.40;56.97;;;16.10;99.90;;;;;;5009916;28;20029;-60
2021/08/30 06:03:55;;;;;;;101.65;58.72;;;16.10;99.90;;;;;;5009929;28;20029;-59
2021/08/30 06:06:20;;;;;;;100.30;57.33;;;16.10;99.90;;;;;;5010058;28;20037;-60
2021/08/30 06:08:46;;;;;;;105.38;58.28;;;16.10;99.90;;;;;;5007339;28;20097;-60
2021/08/30 06:11:11;;;;;;;99.88;56.88;;;16.20;99.90;;;;;;5010089;28;20037;-60
2021/08/30 06:13:37;;;;;;;105.68;58.45;;;16.20;99.90;;;;;;5013668;28;20040;-60
2021/08/30 06:16:03;;;;;;;105.95;57.33;;;16.30;99.90;;;;;;5013292;28;20041;-61
2021/08/30 06:18:28;;;;;;;101.63;56.28;;;16.30;99.90;;;;;;5012462;28;20037;-60
2021/08/30 06:20:54;;;;;;;91.43;54.42;;;16.30;99.90;;;;;;5010784;28;20018;-60
2021/08/30 06:23:20;;;;;;;94.28;55.60;;;16.30;99.90;;;;;;5008379;28;20033;-60
2021/08/30 06:25:46;;;;;;;95.13;55.50;;;16.40;99.90;;;;;;5012946;28;20639;-60
2021/08/30 06:28:12;;;;;;;91.75;54.08;;;16.40;99.90;;;;;;5013093;28;20049;-60
2021/08/30 06:30:38;;;;;;;87.30;51.92;;;16.40;99.90;;;;;;5013413;28;20037;-60
2021/08/30 06:33:03;;;;;;;92.45;52.55;;;16.40;99.90;;;;;;5013562;28;20049;-60
2021/08/30 06:35:29;;;;;;;88.60;52.60;;;16.50;99.90;;;;;;5012803;28;20365;-60
2021/08/30 06:37:55;;;;;;;88.03;51.55;;;16.50;99.90;;;;;;5012539;28;20026;-60
2021/08/30 06:40:23;;;;;;;89.78;50.90;;;16.50;99.90;;;;;;5007083;28;20464;-59
2021/08/30 06:42:49;;;;;;;80.30;50.70;;;16.50;99.90;;;;;;5013199;28;20060;-59
2021/08/30 06:45:15;;;;;;;90.30;50.85;;;16.50;99.90;;;;;;5012703;28;20041;-60
2021/08/30 06:47:42;;;;;;;84.13;50.20;;;16.50;99.90;;;;;;5012713;28;20021;-59
2021/08/30 06:50:08;;;;;;;78.32;47.88;;;16.50;99.90;;;;;;5010086;28;20060;-60
2021/08/30 06:52:33;;;;;;;83.43;50.38;;;16.60;99.90;;;;;;5013035;28;20058;-58
2021/08/30 06:54:59;;;;;;;81.93;48.08;;;16.70;99.90;;;;;;5012828;28;20030;-58
2021/08/30 06:57:25;;;;;;;84.88;50.17;;;16.70;99.90;;;;;;5008374;28;20049;-59
2021/08/30 06:59:50;;;;;;;78.88;48.38;;;16.70;99.90;;;;;;5005036;28;20028;-58
2021/08/30 07:02:16;;;;;;;84.30;48.63;;;16.70;99.90;;;;;;5012329;28;20033;-59
2021/08/30 07:04:41;;;;;;;81.85;46.25;;;16.70;99.90;;;;;;5012255;28;20033;-60
2021/08/30 07:07:07;;;;;;;81.70;48.83;;;16.70;99.90;;;;;;5009272;28;20034;-59
2021/08/30 07:09:32;;;;;;;77.70;47.53;;;16.70;99.90;;;;;;5005217;28;20025;-59
2021/08/30 07:11:58;;;;;;;76.53;46.30;;;16.70;99.90;;;;;;5010190;28;20038;-59
2021/08/30 07:14:23;;;;;;;79.68;47.55;;;16.70;99.90;;;;;;5009084;28;20056;-60
2021/08/30 07:16:49;;;;;;;69.95;45.15;;;16.70;99.90;;;;;;5006910;28;20042;-59
2021/08/30 07:19:15;;;;;;;72.97;45.58;;;16.70;99.90;;;;;;5008386;28;20033;-59
2021/08/30 07:21:41;;;;;;;76.95;44.85;;;16.70;99.90;;;;;;5003327;28;20068;-60
2021/08/30 07:24:06;;;;;;;78.00;45.15;;;16.70;99.90;;;;;;5008245;28;20033;-60
2021/08/30 07:26:32;;;;;;;71.30;45.78;;;16.70;99.90;;;;;;5010981;28;20026;-60
2021/08/30 07:28:57;;;;;;;76.30;45.63;;;16.70;99.90;;;;;;5012078;28;20100;-60
2021/08/30 07:31:23;;;;;;;81.50;46.92;;;16.70;99.90;;;;;;5009107;28;20417;-60
2021/08/30 07:33:49;;;;;;;74.85;45.25;;;16.60;99.90;;;;;;4999895;28;20411;-59
2021/08/30 07:36:15;;;;;;;77.85;46.88;;;16.60;99.90;;;;;;4998904;28;20080;-59
2021/08/30 07:38:41;;;;;;;85.90;47.58;;;16.60;99.90;;;;;;5008619;28;20034;-57
2021/08/30 07:41:07;;;;;;;82.28;47.45;;;16.60;99.90;;;;;;5006110;28;20072;-58
2021/08/30 07:43:33;;;;;;;81.68;50.88;;;16.60;99.90;;;;;;5005364;28;20038;-59
2021/08/30 07:46:00;;;;;;;85.38;48.67;;;16.60;99.90;;;;;;5012411;28;20032;-59
2021/08/30 07:48:26;;;;;;;87.53;51.20;;;16.50;99.90;;;;;;5010351;28;20558;-60
2021/08/30 07:50:52;;;;;;;91.63;51.72;;;16.60;99.90;;;;;;5008176;28;20116;-60
2021/08/30 07:53:17;;;;;;;99.38;52.95;;;16.60;99.90;;;;;;5012066;28;20915;-58
2021/08/30 07:55:43;;;;;;;96.85;52.47;;;16.60;99.90;;;;;;5010021;28;20034;-59
2021/08/30 07:58:09;;;;;;;95.65;52.70;;;16.70;99.90;;;;;;5003476;28;20029;-60
2021/08/30 08:00:34;;;;;;;88.57;48.60;;;16.70;99.90;;;;;;5009124;28;20033;-60
2021/08/30 08:03:00;;;;;;;86.75;48.80;;;16.70;99.90;;;;;;5004861;28;20027;-60
2021/08/30 08:05:26;;;;;;;81.22;49.22;;;16.70;99.90;;;;;;5008725;28;20026;-60
2021/08/30 08:07:51;;;;;;;87.40;48.80;;;16.80;99.90;;;;;;5003230;28;20101;-60
2021/08/30 08:10:17;;;;;;;84.13;50.10;;;16.70;99.90;;;;;;5006006;28;20104;-60
2021/08/30 08:12:42;;;;;;;95.38;51.88;;;16.80;99.90;;;;;;5005957;28;20375;-60
2021/08/30 08:15:08;;;;;;;84.22;49.80;;;16.80;99.90;;;;;;5011394;28;20018;-59
2021/08/30 08:17:34;;;;;;;88.22;48.63;;;16.90;99.90;;;;;;5006620;28;20037;-60
2021/08/30 08:20:01;;;;;;;77.43;48.70;;;16.90;99.90;;;;;;5011022;28;20370;-60
2021/08/30 08:22:30;;;;;;;88.53;51.65;;;17.00;99.90;;;;;;5010526;28;20038;-59
2021/08/30 08:24:57;;;;;;;83.35;48.78;;;17.00;99.90;;;;;;5010173;28;20029;-60
2021/08/30 08:27:23;;;;;;;84.53;48.75;;;17.10;99.90;;;;;;5003112;28;20025;-60
2021/08/30 08:29:49;;;;;;;77.15;48.00;;;17.20;99.90;;;;;;5002052;28;20030;-60
2021/08/30 08:32:14;;;;;;;89.15;48.05;;;17.30;99.90;;;;;;5001718;28;20048;-59
2021/08/30 08:34:40;;;;;;;80.13;47.08;;;17.30;99.90;;;;;;5004235;28;20040;-59
2021/08/30 08:37:05;;;;;;;82.28;47.72;;;17.40;99.90;;;;;;5004269;28;20449;-60
2021/08/30 08:39:31;;;;;;;72.50;45.22;;;17.50;99.90;;;;;;5001416;28;20040;-60
2021/08/30 08:41:57;;;;;;;71.03;44.75;;;17.50;99.90;;;;;;5003450;28;20453;-61
2021/08/30 08:44:23;;;;;;;74.65;45.22;;;17.60;99.90;;;;;;5005566;28;20053;-58
2021/08/30 08:46:49;;;;;;;81.20;46.40;;;17.60;99.90;;;;;;5002071;28;20505;-60
2021/08/30 08:49:15;;;;;;;74.50;46.42;;;17.60;99.90;;;;;;5001514;28;20072;-60
2021/08/30 08:51:40;;;;;;;85.45;48.00;;;17.60;99.90;;;;;;5003911;28;20516;-59
2021/08/30 08:54:08;;;;;;;71.80;43.13;;;17.70;99.90;;;;;;5002404;28;20505;-59
2021/08/30 08:56:34;;;;;;;66.18;43.42;;;17.70;99.90;;;;;;5002218;28;20033;-60
2021/08/30 08:59:00;;;;;;;75.10;43.65;;;17.80;99.90;;;;;;5002937;28;20030;-58
2021/08/30 09:01:27;;;;;;;65.20;41.17;;;17.80;99.90;;;;;;5001757;28;20450;-60
2021/08/30 09:03:56;;;;;;;68.43;43.53;;;17.80;99.90;;;;;;5003542;28;20569;-60
2021/08/30 09:06:44;;;;;;;67.32;41.53;;;17.90;99.90;;;;;;5005396;28;20104;-58
2021/08/30 09:09:16;;;;;;;61.00;38.47;;;18.00;99.90;;;;;;5007216;28;20084;-57
2021/08/30 09:11:56;;;;;;;64.25;38.95;;;18.00;99.90;;;;;;4990888;28;20026;-58
2021/08/30 09:14:24;;;;;;;61.88;40.35;;;17.90;99.90;;;;;;5006797;28;20393;-60
2021/08/30 09:17:04;;;;;;;55.20;35.90;;;18.20;99.90;;;;;;5009373;28;20420;-58
2021/08/30 09:19:30;;;;;;;58.67;35.67;;;18.30;99.90;;;;;;5006320;28;20030;-59
2021/08/30 09:21:56;;;;;;;54.63;36.10;;;18.40;99.90;;;;;;5004925;28;20114;-58
2021/08/30 09:24:24;;;;;;;53.97;36.08;;;18.50;99.90;;;;;;5005126;28;20026;-59
2021/08/30 09:27:01;;;;;;;46.97;32.03;;;18.60;99.90;;;;;;5009358;28;20022;-59
2021/08/30 09:29:29;;;;;;;108.95;38.70;;;18.90;99.90;;;;;;5010225;28;20026;-61
2021/08/30 09:32:06;;;;;;;45.78;31.58;;;19.00;99.90;;;;;;5003756;28;20106;-61
2021/08/30 09:34:37;;;;;;;50.17;32.70;;;19.10;99.90;;;;;;5007737;28;20026;-60
2021/08/30 09:37:15;;;;;;;51.53;33.70;;;19.10;99.90;;;;;;5000648;28;20037;-59
2021/08/30 09:39:48;;;;;;;43.08;29.30;;;19.20;99.90;;;;;;4998781;28;20034;-61
2021/08/30 09:42:14;;;;;;;48.63;31.05;;;19.20;99.90;;;;;;5007595;28;20030;-58
2021/08/30 09:44:39;;;;;;;41.55;29.50;;;19.30;99.90;;;;;;5003102;28;20401;-58
2021/08/30 09:47:13;;;;;;;42.45;30.33;;;19.30;99.90;;;;;;5007461;28;20033;-61
2021/08/30 09:49:40;;;;;;;45.95;30.40;;;19.50;99.90;;;;;;4988639;28;20062;-62
2021/08/30 09:52:05;;;;;;;44.15;31.13;;;19.70;99.90;;;;;;5004768;28;20121;-60
2021/08/30 09:54:31;;;;;;;47.35;32.28;;;19.60;99.90;;;;;;5003118;28;20409;-59
2021/08/30 09:56:57;;;;;;;51.30;32.83;;;19.40;99.90;;;;;;5008208;28;20540;-59
2021/08/30 09:59:24;;;;;;;58.10;34.40;;;19.10;99.90;;;;;;5002583;28;20049;-60
2021/08/30 10:01:53;;;;;;;53.97;33.92;;;18.90;99.90;;;;;;5006216;28;20041;-58
2021/08/30 10:04:20;;;;;;;49.63;34.42;;;18.80;99.90;;;;;;5007861;28;20045;-58
2021/08/30 10:06:49;;;;;;;45.50;33.20;;;18.60;99.90;;;;;;5004631;28;20037;-60
2021/08/30 10:09:16;;;;;;;49.40;35.15;;;18.50;99.90;;;;;;5002423;28;20390;-59
2021/08/30 10:11:43;;;;;;;55.30;36.47;;;18.50;99.90;;;;;;5005298;28;20091;-59
2021/08/30 10:14:11;;;;;;;55.45;36.80;;;18.40;99.90;;;;;;5010221;28;20083;-62
2021/08/30 10:16:38;;;;;;;53.10;35.88;;;18.40;99.90;;;;;;4988258;28;20026;-61
2021/08/30 10:19:04;;;;;;;58.40;36.95;;;18.50;99.90;;;;;;4998895;28;20823;-61
2021/08/30 10:21:30;;;;;;;55.35;38.00;;;18.40;99.90;;;;;;5004210;28;20046;-60
2021/08/30 10:23:57;;;;;;;60.30;37.90;;;18.50;99.90;;;;;;5033330;23;20553;-57
2021/08/30 10:26:37;;;;;;;59.90;36.97;;;18.40;99.90;;;;;;5006377;28;20048;-58
2021/08/30 10:29:03;;;;;;;62.53;39.25;;;18.40;99.90;;;;;;5007564;28;20022;-58
2021/08/30 10:31:29;;;;;;;61.03;37.80;;;18.50;99.90;;;;;;5002827;28;20034;-61
2021/08/30 10:33:57;;;;;;;123.20;42.90;;;18.50;99.90;;;;;;5007830;28;20029;-59
2021/08/30 10:36:26;;;;;;;58.17;39.38;;;18.50;99.90;;;;;;5003019;28;20034;-54
2021/08/30 10:39:07;;;;;;;60.40;39.75;;;18.50;99.90;;;;;;5009331;28;20030;-58
2021/08/30 10:41:39;;;;;;;62.47;39.10;;;18.50;99.90;;;;;;4998594;28;20049;-60
2021/08/30 10:44:14;;;;;;;60.95;38.03;;;18.40;99.90;;;;;;4989814;28;20034;-61
2021/08/30 10:46:51;;;;;;;65.15;41.03;;;18.40;99.90;;;;;;5008636;28;20044;-59
2021/08/30 10:49:27;;;;;;;59.53;40.75;;;18.40;99.90;;;;;;5004380;28;20049;-58
2021/08/30 10:52:11;;;;;;;56.70;39.25;;;18.50;99.90;;;;;;4997921;28;20033;-59
2021/08/30 10:54:48;;;;;;;56.20;38.75;;;18.50;99.90;;;;;;5005869;28;20025;-60
2021/08/30 10:57:14;;;;;;;67.32;38.75;;;18.40;99.90;;;;;;5010019;28;20123;-58
2021/08/30 10:59:42;;;;;;;57.92;38.65;;;18.40;99.90;;;;;;5006593;28;20022;-56
2021/08/30 11:02:08;;;;;;;59.38;36.67;;;18.30;99.90;;;;;;5007546;28;20036;-63
2021/08/30 11:04:36;;;;;;;65.68;37.83;;;18.30;99.90;;;;;;5009040;28;20408;-56
2021/08/30 11:07:03;;;;;;;62.63;38.75;;;18.20;99.90;;;;;;5006229;28;20037;-58
2021/08/30 11:09:30;;;;;;;61.67;37.53;;;18.30;99.90;;;;;;5006753;28;20444;-56
2021/08/30 11:12:10;;;;;;;58.70;38.92;;;18.20;99.90;;;;;;5010773;28;20046;-59
2021/08/30 11:14:36;;;;;;;57.45;39.15;;;18.10;99.90;;;;;;5010646;28;20034;-58
2021/08/30 11:17:02;;;;;;;54.05;36.95;;;18.10;99.90;;;;;;5009954;28;20029;-60
2021/08/30 11:19:28;;;;;;;49.30;34.95;;;18.10;99.90;;;;;;5010553;28;20029;-59
2021/08/30 11:21:57;;;;;;;54.75;37.00;;;18.10;99.90;;;;;;5011749;28;20512;-60
2021/08/30 11:24:43;;;;;;;59.22;35.58;;;18.20;99.90;;;;;;5011279;28;20056;-59
2021/08/30 11:27:15;;;;;;;53.65;34.40;;;18.30;99.90;;;;;;5009652;28;20061;-61
2021/08/30 11:29:43;;;;;;;52.85;35.47;;;18.40;99.90;;;;;;5009196;28;20108;-60
2021/08/30 11:32:09;;;;;;;54.90;34.47;;;18.60;99.90;;;;;;5008853;28;20038;-58
2021/08/30 11:34:37;;;;;;;48.28;32.47;;;18.60;99.90;;;;;;5008076;28;20026;-58
2021/08/30 11:37:05;;;;;;;56.15;33.28;;;18.60;99.90;;;;;;5010425;28;20113;-58
2021/08/30 11:39:33;;;;;;;46.20;31.40;;;18.70;99.90;;;;;;5008959;28;20041;-60
2021/08/30 11:42:04;;;;;;;45.85;31.73;;;18.80;99.90;;;;;;5007124;28;20558;-59
2021/08/30 11:44:32;;;;;;;46.92;30.65;;;19.20;99.90;;;;;;5008461;28;20025;-59
2021/08/30 11:47:00;;;;;;;44.50;29.75;;;19.30;99.90;;;;;;5009553;28;20033;-59
2021/08/30 11:49:29;;;;;;;45.65;29.55;;;19.40;99.90;;;;;;5010303;28;20021;-55
2021/08/30 11:51:58;;;;;;;38.95;27.15;;;19.50;99.90;;;;;;5011367;28;20057;-60
2021/08/30 11:54:30;;;;;;;38.45;26.17;;;19.50;99.90;;;;;;5010894;28;20076;-62
2021/08/30 11:57:03;;;;;;;36.05;26.42;;;19.70;99.90;;;;;;5010315;28;20428;-61
2021/08/30 11:59:40;;;;;;;38.20;25.38;;;19.80;99.90;;;;;;5010415;28;20092;-62
2021/08/30 12:02:08;;;;;;;35.83;23.52;;;19.80;99.90;;;;;;5007555;28;20057;-61
2021/08/30 12:04:36;;;;;;;35.50;24.67;;;19.90;99.90;;;;;;5011318;28;20045;-60
2021/08/30 12:07:05;;;;;;;31.73;23.27;;;20.10;99.90;;;;;;5008566;28;20030;-62
2021/08/30 12:09:52;;;;;;;31.33;22.70;;;20.20;99.90;;;;;;5010520;28;20552;-61
2021/08/30 12:12:27;;;;;;;40.45;25.08;;;20.50;99.90;;;;;;5009543;28;20152;-60
2021/08/30 12:15:05;;;;;;;33.45;23.10;;;20.60;99.90;;;;;;5010695;28;20034;-61
2021/08/30 12:17:33;;;;;;;32.72;23.63;;;20.50;99.90;;;;;;5008338;28;20116;-59
2021/08/30 12:20:04;;;;;;;34.58;22.27;;;20.40;99.90;;;;;;5009548;28;20048;-61
2021/08/30 12:22:33;;;;;;;31.30;22.02;;;20.10;99.90;;;;;;5007518;28;20034;-59
2021/08/30 12:25:01;;;;;;;32.63;22.80;;;20.10;99.90;;;;;;5009604;28;20397;-59
2021/08/30 12:27:34;;;;;;;34.72;21.00;;;20.10;99.90;;;;;;5004871;28;20098;-57
2021/08/30 12:30:12;;;;;;;29.90;21.67;;;20.10;99.90;;;;;;5010600;28;20485;-60
2021/08/30 12:32:48;;;;;;;29.73;20.42;;;20.20;99.90;;;;;;5007582;28;20030;-59